createdAt,value
2018-03-21T00:02:16.440Z,1.30
2018-03-21T00:04:43.896Z,1.30
2018-03-21T00:07:11.352Z,1.30
2018-03-21T00:09:39.011Z,1.40
2018-03-21T00:12:06.456Z,1.40
2018-03-21T00:14:33.897Z,1.40
2018-03-21T00:17:01.347Z,1.40
2018-03-21T00:19:28.776Z,1.40
2018-03-21T00:21:56.225Z,1.40
2018-03-21T00:24:23.672Z,1.40
2018-03-21T00:26:51.128Z,1.50
2018-03-21T00:29:18.572Z,1.50
2018-03-21T00:31:46.142Z,1.40
2018-03-21T00:34:13.584Z,1.40
2018-03-21T00:36:41.057Z,1.40
2018-03-21T00:39:08.484Z,1.30
2018-03-21T00:41:35.941Z,1.30
2018-03-21T00:44:04.138Z,1.40
2018-03-21T00:46:32.184Z,1.30
2018-03-21T00:48:59.612Z,1.40
2018-03-21T00:51:27.060Z,1.40
2018-03-21T00:53:54.524Z,1.40
2018-03-21T00:56:21.983Z,1.50
2018-03-21T00:58:49.416Z,1.40
2018-03-21T01:01:16.896Z,1.30
2018-03-21T01:03:44.332Z,1.30
2018-03-21T01:06:11.800Z,1.40
2018-03-21T01:08:39.237Z,1.40
2018-03-21T01:11:06.676Z,1.40
2018-03-21T01:13:37.538Z,1.50
2018-03-21T01:16:04.996Z,1.40
2018-03-21T01:18:32.431Z,1.50
2018-03-21T01:20:59.886Z,1.50
2018-03-21T01:23:27.322Z,1.60
2018-03-21T01:25:54.767Z,1.60
2018-03-21T01:28:22.971Z,1.50
2018-03-21T01:30:50.434Z,1.50
2018-03-21T01:33:17.876Z,1.60
2018-03-21T01:35:45.324Z,1.60
2018-03-21T01:38:13.559Z,1.60
2018-03-21T01:40:41.005Z,1.60
2018-03-21T01:43:08.432Z,1.70
2018-03-21T01:45:35.895Z,1.70
2018-03-21T01:48:03.345Z,1.80
2018-03-21T01:50:30.796Z,1.80
2018-03-21T01:53:11.629Z,1.80
2018-03-21T01:55:39.072Z,1.80
2018-03-21T01:58:06.524Z,1.90
2018-03-21T02:00:33.988Z,1.90
2018-03-21T02:03:01.424Z,1.90
2018-03-21T02:05:28.859Z,1.90
2018-03-21T02:07:56.303Z,1.90
2018-03-21T02:10:23.742Z,1.90
2018-03-21T02:12:51.966Z,1.90
2018-03-21T02:15:19.404Z,1.80
2018-03-21T02:17:46.860Z,1.90
2018-03-21T02:20:17.580Z,1.90
2018-03-21T02:22:45.025Z,1.90
2018-03-21T02:25:13.245Z,1.90
2018-03-21T02:27:40.711Z,1.80
2018-03-21T02:30:08.140Z,1.90
2018-03-21T02:32:35.584Z,1.90
2018-03-21T02:35:03.038Z,1.90
2018-03-21T02:37:30.480Z,1.90
2018-03-21T02:39:57.943Z,1.90
2018-03-21T02:42:25.414Z,1.90
2018-03-21T02:44:52.853Z,1.90
2018-03-21T02:47:20.307Z,1.90
2018-03-21T02:49:48.520Z,1.90
2018-03-21T02:52:15.973Z,1.80
2018-03-21T02:54:43.437Z,1.90
2018-03-21T02:57:10.868Z,1.90
2018-03-21T02:59:39.094Z,1.90
2018-03-21T03:02:06.528Z,1.80
2018-03-21T03:04:33.996Z,1.90
2018-03-21T03:07:01.453Z,1.90
2018-03-21T03:09:28.922Z,1.90
2018-03-21T03:11:56.363Z,1.80
2018-03-21T03:14:23.824Z,1.80
2018-03-21T03:16:51.271Z,1.80
2018-03-21T03:19:18.728Z,1.80
2018-03-21T03:21:46.178Z,1.80
2018-03-21T03:24:13.616Z,1.70
2018-03-21T03:26:41.097Z,1.70
2018-03-21T03:29:08.532Z,1.70
2018-03-21T03:31:35.993Z,1.70
2018-03-21T03:34:03.445Z,1.70
2018-03-21T03:36:30.872Z,1.70
2018-03-21T03:38:58.330Z,1.70
2018-03-21T03:41:26.087Z,1.70
2018-03-21T03:43:53.627Z,1.70
2018-03-21T03:46:21.080Z,1.70
2018-03-21T03:48:50.039Z,1.70
2018-03-21T03:51:17.496Z,1.70
2018-03-21T03:53:44.931Z,1.80
2018-03-21T03:56:12.391Z,1.80
2018-03-21T03:58:39.870Z,1.80
2018-03-21T04:01:07.305Z,1.80
2018-03-21T04:03:34.760Z,1.70
2018-03-21T04:06:02.195Z,1.70
2018-03-21T04:08:29.657Z,1.70
2018-03-21T04:11:02.961Z,1.70
2018-03-21T04:13:30.424Z,1.70
2018-03-21T04:15:57.871Z,1.70
2018-03-21T04:18:25.311Z,1.70
2018-03-21T04:20:52.769Z,1.70
2018-03-21T04:23:20.212Z,1.70
2018-03-21T04:25:47.669Z,1.70
2018-03-21T04:28:15.107Z,1.60
2018-03-21T04:30:42.547Z,1.60
2018-03-21T04:33:09.997Z,1.60
2018-03-21T04:35:38.211Z,1.50
2018-03-21T04:38:05.673Z,1.50
2018-03-21T04:40:33.103Z,1.50
2018-03-21T04:43:00.544Z,1.50
2018-03-21T04:45:28.757Z,1.50
2018-03-21T04:47:56.221Z,1.50
2018-03-21T04:50:23.679Z,1.50
2018-03-21T04:52:51.135Z,1.50
2018-03-21T04:55:18.586Z,1.50
2018-03-21T04:57:46.046Z,1.50
2018-03-21T05:00:13.500Z,1.50
2018-03-21T05:02:41.706Z,1.50
2018-03-21T05:05:09.159Z,1.50
2018-03-21T05:07:36.622Z,1.50
2018-03-21T05:10:04.064Z,1.50
2018-03-21T05:12:31.507Z,1.40
2018-03-21T05:14:59.032Z,1.40
2018-03-21T05:17:26.467Z,1.40
2018-03-21T05:19:53.916Z,1.40
2018-03-21T05:22:21.380Z,1.40
2018-03-21T05:24:48.815Z,1.40
2018-03-21T05:27:16.257Z,1.40
2018-03-21T05:29:43.701Z,1.40
2018-03-21T05:32:11.168Z,1.40
2018-03-21T05:34:38.609Z,1.40
2018-03-21T05:37:07.722Z,1.40
2018-03-21T05:39:35.151Z,1.50
2018-03-21T05:42:02.642Z,1.50
2018-03-21T05:44:30.075Z,1.50
2018-03-21T05:46:57.532Z,1.50
2018-03-21T05:49:25.817Z,1.50
2018-03-21T05:51:53.280Z,1.50
2018-03-21T05:54:20.732Z,1.60
2018-03-21T05:56:48.218Z,1.60
2018-03-21T05:59:15.624Z,1.60
2018-03-21T06:01:43.056Z,1.60
2018-03-21T06:04:11.282Z,1.60
2018-03-21T06:06:38.717Z,1.50
2018-03-21T06:09:06.192Z,1.60
2018-03-21T06:11:33.654Z,1.60
2018-03-21T06:14:01.096Z,1.60
2018-03-21T06:16:28.552Z,1.60
2018-03-21T06:18:55.991Z,1.60
2018-03-21T06:21:23.468Z,1.70
2018-03-21T06:23:50.920Z,1.70
2018-03-21T06:26:18.380Z,1.70
2018-03-21T06:28:45.831Z,1.70
2018-03-21T06:31:13.297Z,1.80
2018-03-21T06:33:40.753Z,1.80
2018-03-21T06:36:08.189Z,1.80
2018-03-21T06:38:36.408Z,1.80
2018-03-21T06:41:03.843Z,1.80
2018-03-21T06:43:31.564Z,1.80
2018-03-21T06:45:58.992Z,1.90
2018-03-21T06:48:26.436Z,1.90
2018-03-21T06:50:53.924Z,2.00
2018-03-21T06:53:21.381Z,2.10
2018-03-21T06:55:48.874Z,2.20
2018-03-21T06:58:16.323Z,2.30
2018-03-21T07:00:43.863Z,2.40
2018-03-21T07:03:11.290Z,2.50
2018-03-21T07:05:38.946Z,2.60
2018-03-21T07:08:06.403Z,2.70
2018-03-21T07:10:33.863Z,2.80
2018-03-21T07:13:01.332Z,2.90
2018-03-21T07:15:40.564Z,2.90
2018-03-21T07:18:08.008Z,3.00
2018-03-21T07:20:35.464Z,3.10
2018-03-21T07:23:02.924Z,3.30
2018-03-21T07:25:30.380Z,3.50
2018-03-21T07:27:58.036Z,3.80
2018-03-21T07:30:25.471Z,4.00
2018-03-21T07:32:52.934Z,4.20
2018-03-21T07:35:20.371Z,4.30
2018-03-21T07:37:48.590Z,4.50
2018-03-21T07:40:16.036Z,4.50
2018-03-21T07:42:43.552Z,4.60
2018-03-21T07:45:11.018Z,4.70
2018-03-21T07:47:39.246Z,4.80
2018-03-21T07:50:06.697Z,4.70
2018-03-21T07:52:34.164Z,4.70
2018-03-21T07:55:01.603Z,4.60
2018-03-21T07:57:29.040Z,4.40
2018-03-21T07:59:56.500Z,4.30
2018-03-21T08:02:23.939Z,4.20
2018-03-21T08:04:51.410Z,4.10
2018-03-21T08:07:19.628Z,3.80
2018-03-21T08:09:47.077Z,3.70
2018-03-21T08:12:14.741Z,3.50
2018-03-21T08:14:42.208Z,3.50
2018-03-21T08:17:09.668Z,3.60
2018-03-21T08:19:37.213Z,3.60
2018-03-21T08:22:04.726Z,3.60
2018-03-21T08:24:32.941Z,3.50
2018-03-21T08:27:00.435Z,3.40
2018-03-21T08:29:27.909Z,3.50
2018-03-21T08:31:55.396Z,3.40
2018-03-21T08:34:23.066Z,3.60
2018-03-21T08:36:51.274Z,3.80
2018-03-21T08:39:18.764Z,3.70
2018-03-21T08:41:46.986Z,4.10
2018-03-21T08:44:14.462Z,4.00
2018-03-21T08:46:41.918Z,4.30
2018-03-21T08:49:09.366Z,4.30
2018-03-21T08:51:36.836Z,4.50
2018-03-21T08:54:04.284Z,4.60
2018-03-21T08:56:31.761Z,4.80
2018-03-21T08:58:59.215Z,5.00
2018-03-21T09:01:26.681Z,5.00
2018-03-21T09:03:54.116Z,4.90
2018-03-21T09:06:21.598Z,4.80
2018-03-21T09:08:49.040Z,4.90
2018-03-21T09:11:16.492Z,4.90
2018-03-21T09:13:43.979Z,4.80
2018-03-21T09:16:11.441Z,4.90
2018-03-21T09:18:38.917Z,4.80
2018-03-21T09:21:07.190Z,4.90
2018-03-21T09:23:34.679Z,4.70
2018-03-21T09:26:02.195Z,4.70
2018-03-21T09:28:29.682Z,4.80
2018-03-21T09:30:57.237Z,4.80
2018-03-21T09:33:24.694Z,4.80
2018-03-21T09:35:52.393Z,4.80
2018-03-21T09:38:20.100Z,4.70
2018-03-21T09:40:47.544Z,4.70
2018-03-21T09:43:14.987Z,4.70
2018-03-21T09:45:42.429Z,4.90
2018-03-21T09:48:09.878Z,4.80
2018-03-21T09:50:38.087Z,4.70
2018-03-21T09:53:05.541Z,4.60
2018-03-21T09:55:32.991Z,4.70
2018-03-21T09:58:00.443Z,4.80
2018-03-21T10:00:27.964Z,5.00
2018-03-21T10:02:55.400Z,5.30
2018-03-21T10:05:22.956Z,5.40
2018-03-21T10:07:51.169Z,5.40
2018-03-21T10:10:18.594Z,5.30
2018-03-21T10:12:46.061Z,5.50
2018-03-21T10:15:13.508Z,5.60
2018-03-21T10:17:41.789Z,5.20
2018-03-21T10:20:09.222Z,5.10
2018-03-21T10:22:36.684Z,4.60
2018-03-21T10:25:04.911Z,4.90
2018-03-21T10:27:32.358Z,4.80
2018-03-21T10:29:59.792Z,5.30
2018-03-21T10:32:27.277Z,5.80
2018-03-21T10:34:54.716Z,6.30
2018-03-21T10:37:22.173Z,6.70
2018-03-21T10:39:49.656Z,7.00
2018-03-21T10:42:17.119Z,7.20
2018-03-21T10:44:44.996Z,7.20
2018-03-21T10:47:12.482Z,7.10
2018-03-21T10:49:39.942Z,6.80
2018-03-21T10:52:07.407Z,6.70
2018-03-21T10:54:34.855Z,6.70
2018-03-21T10:57:02.295Z,6.50
2018-03-21T10:59:29.736Z,6.20
2018-03-21T11:02:02.974Z,6.00
2018-03-21T11:04:30.421Z,5.90
2018-03-21T11:06:57.899Z,5.90
2018-03-21T11:09:25.367Z,5.90
2018-03-21T11:11:52.811Z,5.80
2018-03-21T11:14:20.247Z,5.90
2018-03-21T11:16:47.703Z,6.00
2018-03-21T11:19:15.914Z,6.20
2018-03-21T11:21:43.373Z,6.10
2018-03-21T11:24:10.845Z,6.20
2018-03-21T11:26:38.294Z,6.40
2018-03-21T11:29:05.928Z,6.40
2018-03-21T11:31:33.427Z,6.50
2018-03-21T11:34:00.900Z,6.50
2018-03-21T11:36:28.349Z,6.50
2018-03-21T11:38:55.847Z,6.60
2018-03-21T11:41:24.064Z,6.70
2018-03-21T11:43:51.547Z,6.60
2018-03-21T11:46:18.987Z,6.90
2018-03-21T11:48:46.440Z,7.00
2018-03-21T11:51:14.038Z,6.60
2018-03-21T11:53:41.459Z,6.80
2018-03-21T11:56:08.903Z,6.60
2018-03-21T11:58:36.354Z,6.90
2018-03-21T12:01:03.821Z,6.90
2018-03-21T12:03:31.284Z,6.50
2018-03-21T12:05:58.746Z,6.10
2018-03-21T12:08:26.205Z,6.20
2018-03-21T12:10:53.668Z,6.30
2018-03-21T12:13:21.114Z,6.50
2018-03-21T12:15:49.460Z,6.40
2018-03-21T12:18:16.927Z,6.70
2018-03-21T12:20:44.401Z,6.90
2018-03-21T12:23:11.879Z,7.10
2018-03-21T12:25:39.331Z,7.20
2018-03-21T12:28:06.838Z,7.10
2018-03-21T12:30:34.518Z,7.20
2018-03-21T12:33:02.019Z,7.10
2018-03-21T12:35:29.488Z,6.80
2018-03-21T12:37:57.019Z,6.90
2018-03-21T12:40:24.550Z,6.90
2018-03-21T12:42:52.756Z,6.60
2018-03-21T12:45:20.275Z,6.50
2018-03-21T12:47:47.768Z,6.50
2018-03-21T12:50:15.252Z,6.40
2018-03-21T12:52:42.697Z,6.30
2018-03-21T12:55:10.193Z,6.10
2018-03-21T12:57:39.597Z,5.80
2018-03-21T13:00:07.021Z,5.70
2018-03-21T13:02:34.493Z,5.70
2018-03-21T13:05:01.968Z,5.70
2018-03-21T13:07:30.200Z,5.50
2018-03-21T13:09:59.340Z,5.50
2018-03-21T13:12:26.869Z,5.50
2018-03-21T13:14:54.324Z,5.60
2018-03-21T13:17:22.980Z,5.60
2018-03-21T13:19:50.435Z,5.80
2018-03-21T13:22:20.080Z,6.00
2018-03-21T13:24:49.354Z,6.40
2018-03-21T13:27:16.831Z,6.40
2018-03-21T13:29:44.283Z,6.70
2018-03-21T13:32:11.778Z,7.00
2018-03-21T13:34:39.198Z,7.10
2018-03-21T13:37:06.724Z,7.10
2018-03-21T13:39:34.208Z,7.50
2018-03-21T13:42:02.285Z,7.50
2018-03-21T13:44:29.939Z,7.70
2018-03-21T13:46:57.372Z,8.20
2018-03-21T13:49:24.838Z,8.70
2018-03-21T13:51:52.326Z,9.00
2018-03-21T13:54:19.807Z,9.20
2018-03-21T13:56:47.250Z,9.50
2018-03-21T13:59:14.702Z,9.70
2018-03-21T14:01:42.196Z,9.60
2018-03-21T14:04:09.687Z,10.10
2018-03-21T14:06:37.382Z,10.40
2018-03-21T14:09:04.866Z,10.70
2018-03-21T14:11:32.395Z,11.00
2018-03-21T14:13:59.800Z,11.20
2018-03-21T14:16:27.269Z,11.20
2018-03-21T14:18:54.700Z,11.40
2018-03-21T14:21:22.191Z,12.20
2018-03-21T14:23:49.672Z,13.00
2018-03-21T14:26:17.332Z,14.70
2018-03-21T14:28:44.799Z,16.40
2018-03-21T14:31:12.277Z,18.20
2018-03-21T14:33:39.831Z,19.00
2018-03-21T14:36:07.338Z,19.40
2018-03-21T14:38:34.813Z,19.80
2018-03-21T14:41:02.271Z,19.40
2018-03-21T14:43:29.741Z,19.00
2018-03-21T14:45:57.876Z,19.50
2018-03-21T14:48:25.353Z,19.80
2018-03-21T14:50:52.828Z,20.50
2018-03-21T14:53:20.294Z,22.00
2018-03-21T14:55:47.799Z,22.30
2018-03-21T14:58:15.228Z,20.60
2018-03-21T15:00:42.705Z,18.90
2018-03-21T15:03:11.019Z,15.40
2018-03-21T15:05:38.458Z,15.30
2018-03-21T15:08:05.930Z,14.20
2018-03-21T15:10:33.396Z,13.20
2018-03-21T15:13:00.856Z,12.40
2018-03-21T15:15:28.324Z,11.70
2018-03-21T15:17:55.759Z,11.20
2018-03-21T15:20:23.330Z,10.90
2018-03-21T15:22:50.781Z,10.50
2018-03-21T15:25:18.302Z,10.20
2018-03-21T15:27:45.717Z,10.00
2018-03-21T15:30:13.174Z,9.80
2018-03-21T15:32:42.066Z,9.60
2018-03-21T15:35:09.553Z,9.60
2018-03-21T15:37:37.000Z,9.50
2018-03-21T15:40:04.507Z,9.50
2018-03-21T15:42:31.964Z,9.40
2018-03-21T15:44:59.408Z,9.40
2018-03-21T15:47:26.909Z,9.40
2018-03-21T15:49:55.797Z,9.30
2018-03-21T15:52:23.850Z,9.20
2018-03-21T15:54:51.375Z,9.10
2018-03-21T15:57:19.592Z,9.00
2018-03-21T15:59:47.036Z,8.90
2018-03-21T16:02:14.493Z,8.70
2018-03-21T16:04:41.981Z,8.50
2018-03-21T16:07:09.455Z,8.30
2018-03-21T16:09:36.904Z,8.20
2018-03-21T16:12:04.386Z,8.10
2018-03-21T16:14:31.858Z,8.10
2018-03-21T16:16:59.428Z,8.00
2018-03-21T16:19:26.899Z,7.80
2018-03-21T16:21:54.400Z,7.80
2018-03-21T16:24:21.855Z,7.60
2018-03-21T16:26:49.292Z,7.40
2018-03-21T16:29:16.772Z,7.20
2018-03-21T16:31:44.236Z,7.00
2018-03-21T16:34:11.708Z,6.70
2018-03-21T16:36:39.151Z,6.50
2018-03-21T16:39:06.626Z,6.30
2018-03-21T16:41:34.832Z,5.90
2018-03-21T16:44:02.300Z,5.90
2018-03-21T16:46:29.755Z,5.80
2018-03-21T16:48:57.238Z,5.50
2018-03-21T16:51:24.700Z,5.40
2018-03-21T16:53:52.185Z,5.20
2018-03-21T16:56:19.624Z,5.10
2018-03-21T16:58:47.061Z,5.00
2018-03-21T17:01:14.529Z,4.80
2018-03-21T17:03:41.981Z,4.70
2018-03-21T17:06:10.206Z,4.60
2018-03-21T17:08:37.683Z,4.50
2018-03-21T17:11:05.167Z,4.30
2018-03-21T17:13:32.628Z,4.10
2018-03-21T17:16:00.080Z,4.00
2018-03-21T17:18:27.558Z,4.00
2018-03-21T17:20:55.819Z,3.80
2018-03-21T17:23:23.281Z,3.70
2018-03-21T17:25:50.732Z,3.70
2018-03-21T17:28:18.164Z,3.60
2018-03-21T17:30:45.636Z,3.50
2018-03-21T17:33:13.071Z,3.40
2018-03-21T17:35:40.616Z,3.30
2018-03-21T17:38:08.088Z,3.30
2018-03-21T17:40:35.553Z,3.20
2018-03-21T17:43:03.093Z,3.10
2018-03-21T17:45:30.536Z,3.10
2018-03-21T17:47:58.003Z,3.00
2018-03-21T17:50:25.476Z,3.00
2018-03-21T17:52:52.933Z,2.90
2018-03-21T17:55:20.409Z,2.90
2018-03-21T17:57:47.857Z,2.90
2018-03-21T18:00:15.379Z,2.70
2018-03-21T18:02:42.783Z,2.70
2018-03-21T18:05:10.314Z,2.70
2018-03-21T18:07:37.748Z,2.70
2018-03-21T18:10:05.201Z,2.70
2018-03-21T18:12:32.638Z,2.60
2018-03-21T18:15:00.081Z,2.50
2018-03-21T18:17:27.512Z,2.50
2018-03-21T18:19:54.965Z,2.40
2018-03-21T18:22:22.408Z,2.40
2018-03-21T18:24:49.863Z,2.30
2018-03-21T18:27:17.300Z,2.30
2018-03-21T18:29:44.748Z,2.20
2018-03-21T18:32:12.199Z,2.20
2018-03-21T18:34:39.632Z,2.20
2018-03-21T18:37:07.077Z,2.10
2018-03-21T18:39:34.542Z,2.00
2018-03-21T18:42:01.996Z,2.00
2018-03-21T18:44:29.472Z,1.90
2018-03-21T18:46:56.936Z,1.90
2018-03-21T18:49:24.400Z,1.80
2018-03-21T18:51:51.840Z,1.80
2018-03-21T18:54:19.341Z,1.70
2018-03-21T18:56:47.552Z,1.60
2018-03-21T18:59:14.998Z,1.50
2018-03-21T19:01:42.437Z,1.50
2018-03-21T19:04:09.883Z,1.40
2018-03-21T19:06:37.312Z,1.50
2018-03-21T19:09:04.765Z,1.50
2018-03-21T19:11:32.204Z,1.50
2018-03-21T19:13:59.724Z,1.50
2018-03-21T19:16:27.163Z,1.40
2018-03-21T19:18:54.592Z,1.40
2018-03-21T19:21:22.036Z,1.40
2018-03-21T19:23:49.483Z,1.40
2018-03-21T19:26:16.927Z,1.40
2018-03-21T19:28:44.362Z,1.40
2018-03-21T19:31:11.820Z,1.40
2018-03-21T19:33:39.324Z,1.40
2018-03-21T19:36:06.777Z,1.40
2018-03-21T19:38:34.224Z,1.30
2018-03-21T19:41:01.657Z,1.30
2018-03-21T19:43:29.132Z,1.20
2018-03-21T19:45:56.590Z,1.20
2018-03-21T19:48:24.024Z,1.20
2018-03-21T19:50:51.481Z,1.20
2018-03-21T19:53:18.916Z,1.20
2018-03-21T19:55:46.380Z,1.20
2018-03-21T19:58:13.831Z,1.20
2018-03-21T20:00:41.255Z,1.00
2018-03-21T20:03:08.712Z,0.90
2018-03-21T20:05:36.195Z,0.80
2018-03-21T20:08:03.620Z,0.70
2018-03-21T20:10:31.063Z,0.50
2018-03-21T20:12:58.504Z,0.40
2018-03-21T20:15:25.948Z,0.40
2018-03-21T20:17:53.503Z,0.30
2018-03-21T20:20:20.944Z,0.30
2018-03-21T20:22:51.438Z,0.30
2018-03-21T20:25:18.905Z,0.20
2018-03-21T20:27:46.356Z,0.30
2018-03-21T20:30:13.826Z,0.30
2018-03-21T20:32:41.251Z,0.30
2018-03-21T20:35:08.697Z,0.30
2018-03-21T20:37:36.153Z,0.40
2018-03-21T20:40:03.606Z,0.40
2018-03-21T20:42:31.040Z,0.40
2018-03-21T20:44:58.493Z,0.30
2018-03-21T20:47:26.699Z,0.40
2018-03-21T20:49:54.136Z,0.30
2018-03-21T20:52:21.603Z,0.30
2018-03-21T20:54:49.049Z,0.30
2018-03-21T20:57:16.564Z,0.30
2018-03-21T20:59:44.008Z,0.30
2018-03-21T21:02:11.460Z,0.40
2018-03-21T21:04:38.916Z,0.40
2018-03-21T21:07:06.375Z,0.40
2018-03-21T21:09:34.565Z,0.40
2018-03-21T21:12:02.015Z,0.30
2018-03-21T21:14:29.452Z,0.30
2018-03-21T21:16:56.917Z,0.30
2018-03-21T21:19:24.356Z,0.30
2018-03-21T21:21:51.987Z,0.30
2018-03-21T21:24:19.447Z,0.40
2018-03-21T21:26:47.655Z,0.30
2018-03-21T21:29:15.100Z,0.30
2018-03-21T21:31:42.549Z,0.30
2018-03-21T21:34:10.013Z,0.20
2018-03-21T21:36:38.037Z,0.30
2018-03-21T21:39:05.493Z,0.30
2018-03-21T21:41:32.940Z,0.30
2018-03-21T21:44:00.398Z,0.30
2018-03-21T21:46:27.842Z,0.30
2018-03-21T21:48:55.277Z,0.30
2018-03-21T21:51:22.737Z,0.20
2018-03-21T21:53:50.161Z,0.30
2018-03-21T21:56:17.625Z,0.20
2018-03-21T21:58:45.067Z,0.20
2018-03-21T22:01:12.540Z,0.20
2018-03-21T22:03:40.001Z,0.10
2018-03-21T22:06:07.452Z,0.10
2018-03-21T22:08:34.904Z,0.10
2018-03-21T22:11:02.375Z,0.10
2018-03-21T22:13:29.804Z,0.10
2018-03-21T22:15:57.255Z,0.10
2018-03-21T22:18:24.708Z,0.10
2018-03-21T22:20:52.156Z,0.10
2018-03-21T22:23:19.595Z,0.00
2018-03-21T22:25:47.040Z,-0.20
2018-03-21T22:28:14.572Z,-0.20
2018-03-21T22:30:42.040Z,-0.20
2018-03-21T22:33:09.496Z,-0.30
2018-03-21T22:35:36.936Z,-0.40
2018-03-21T22:38:04.396Z,-0.30
2018-03-21T22:40:31.836Z,-0.30
2018-03-21T22:42:59.287Z,-0.50
2018-03-21T22:45:26.765Z,-0.50
2018-03-21T22:47:54.221Z,-0.60
2018-03-21T22:50:21.679Z,-0.80
2018-03-21T22:52:49.133Z,-0.80
2018-03-21T22:55:17.335Z,-1.00
2018-03-21T22:57:44.788Z,-1.10
2018-03-21T23:00:12.238Z,-1.20
2018-03-21T23:02:39.690Z,-1.20
2018-03-21T23:05:07.140Z,-1.30
2018-03-21T23:07:34.581Z,-1.30
2018-03-21T23:10:02.044Z,-1.30
2018-03-21T23:12:29.495Z,-1.30
2018-03-21T23:14:56.927Z,-1.30
2018-03-21T23:17:24.383Z,-1.20
2018-03-21T23:19:51.831Z,-1.30
2018-03-21T23:22:19.273Z,-1.30
2018-03-21T23:24:46.735Z,-1.30
2018-03-21T23:27:14.160Z,-1.20
2018-03-21T23:29:41.608Z,-1.20
2018-03-21T23:32:09.048Z,-1.10
2018-03-21T23:34:36.547Z,-1.10
2018-03-21T23:37:04.008Z,-1.10
2018-03-21T23:39:31.464Z,-1.00
2018-03-21T23:41:58.894Z,-1.00
2018-03-21T23:44:26.336Z,-1.00
2018-03-21T23:46:53.804Z,-1.00
2018-03-21T23:49:21.250Z,-1.00
2018-03-21T23:51:48.688Z,-0.90
2018-03-21T23:54:16.144Z,-0.90
2018-03-21T23:56:43.652Z,-0.90
2018-03-21T23:59:11.112Z,-0.90
